Time;durP1;ratioP1;P1;durP2;ratioP2;P2;SDS_P1;SDS_P2;PMS_P1;PMS_P2;Temp;Humidity;BMP_temperature;BMP_pressure;BME280_temperature;BME280_humidity;BME280_pressure;Samples;Min_cycle;Max_cycle;Signal;HPM_P1;HPM_P2
2022/05/15 00:02:40;;;;;;;;;;;12.20;99.90;;;;;;5092888;28;20047;-60
2022/05/15 00:05:08;;;;;;;23.55;8.88;;;12.10;99.90;;;;;;5092167;28;20392;-59
2022/05/15 00:07:34;;;;;;;19.65;8.05;;;12.10;99.90;;;;;;5073899;28;20090;-62
2022/05/15 00:10:00;;;;;;;19.95;8.57;;;12.10;99.90;;;;;;5092205;28;20047;-60
2022/05/15 00:12:26;;;;;;;22.45;7.88;;;12.10;99.90;;;;;;5091833;28;20044;-60
2022/05/15 00:14:51;;;;;;;23.42;8.13;;;12.10;99.90;;;;;;5090603;28;20044;-61
2022/05/15 00:17:17;;;;;;;21.25;8.00;;;12.00;99.90;;;;;;5073660;28;20159;-61
2022/05/15 00:19:43;;;;;;;20.98;7.63;;;12.00;99.90;;;;;;5090631;28;20048;-62
2022/05/15 00:22:09;;;;;;;24.23;8.15;;;12.10;99.90;;;;;;5091034;28;20040;-60
2022/05/15 00:24:36;;;;;;;21.73;8.15;;;12.00;99.90;;;;;;5091625;28;20050;-61
2022/05/15 00:27:03;;;;;;;23.05;8.25;;;12.10;99.90;;;;;;5090883;28;20091;-60
2022/05/15 00:29:29;;;;;;;20.63;7.82;;;12.00;99.90;;;;;;5090261;28;20079;-61
2022/05/15 00:31:55;;;;;;;24.25;7.75;;;12.00;99.90;;;;;;5073989;28;20083;-61
2022/05/15 00:34:21;;;;;;;20.20;8.23;;;12.00;99.90;;;;;;5073700;28;20126;-61
2022/05/15 00:36:47;;;;;;;21.10;8.70;;;11.90;99.90;;;;;;5090608;28;20481;-60
2022/05/15 00:39:13;;;;;;;28.55;8.50;;;11.90;99.90;;;;;;5090329;28;20055;-63
2022/05/15 00:41:39;;;;;;;24.95;9.27;;;11.90;99.90;;;;;;5091817;28;20040;-59
2022/05/15 00:44:07;;;;;;;18.02;7.63;;;11.80;99.90;;;;;;5091503;28;20637;-62
2022/05/15 00:46:36;;;;;;;18.38;8.02;;;11.80;99.90;;;;;;5073363;28;20064;-61
2022/05/15 00:49:05;;;;;;;25.70;8.75;;;11.70;99.90;;;;;;5074704;28;20048;-61
2022/05/15 00:51:42;;;;;;;20.23;8.13;;;11.70;99.90;;;;;;5093158;28;20098;-60
2022/05/15 00:54:29;;;;;;;28.35;8.45;;;11.70;99.90;;;;;;5093929;28;20051;-60
2022/05/15 00:57:03;;;;;;;20.48;6.97;;;11.70;99.90;;;;;;5111711;28;20462;-60
2022/05/15 00:59:33;;;;;;;24.73;7.25;;;11.70;99.90;;;;;;5093416;28;20043;-60
2022/05/15 01:01:59;;;;;;;22.27;7.88;;;11.60;99.90;;;;;;5093710;28;20054;-60
2022/05/15 01:04:25;;;;;;;22.02;8.82;;;11.60;99.90;;;;;;5076486;28;20044;-60
2022/05/15 01:06:51;;;;;;;24.48;9.07;;;11.60;99.90;;;;;;5094919;28;20051;-60
2022/05/15 01:09:17;;;;;;;24.17;8.18;;;11.50;99.90;;;;;;5115747;28;20032;-65
2022/05/15 01:11:46;;;;;;;26.80;8.00;;;11.50;99.90;;;;;;5096648;28;20484;-60
2022/05/15 01:14:15;;;;;;;30.05;9.60;;;11.50;99.90;;;;;;5097549;28;20058;-60
2022/05/15 01:16:42;;;;;;;18.77;8.23;;;11.40;99.90;;;;;;5097175;28;20043;-60
2022/05/15 01:19:08;;;;;;;20.40;9.18;;;11.40;99.90;;;;;;5115742;28;20151;-60
2022/05/15 01:22:01;;;;;;;26.73;8.77;;;11.40;99.90;;;;;;5097022;28;20086;-60
2022/05/15 01:24:28;;;;;;;24.02;8.40;;;11.40;99.90;;;;;;5110824;28;20054;-60
2022/05/15 01:26:54;;;;;;;20.48;8.13;;;11.30;99.90;;;;;;5097421;28;20051;-59
2022/05/15 01:29:29;;;;;;;20.33;8.13;;;11.30;99.90;;;;;;5096981;28;20040;-63
2022/05/15 01:31:56;;;;;;;21.75;6.93;;;11.20;99.90;;;;;;5080225;28;20058;-61
2022/05/15 01:34:22;;;;;;;19.73;8.50;;;11.20;99.90;;;;;;5115084;28;20059;-64
2022/05/15 01:36:48;;;;;;;22.92;7.72;;;11.10;99.90;;;;;;5097441;28;20043;-61
2022/05/15 01:39:14;;;;;;;21.70;7.13;;;11.10;99.90;;;;;;5080472;28;20051;-61
2022/05/15 01:41:40;;;;;;;20.20;6.70;;;11.00;99.90;;;;;;5079973;28;20141;-62
2022/05/15 01:44:06;;;;;;;19.15;7.35;;;11.10;99.90;;;;;;5115156;28;20571;-61
2022/05/15 01:46:32;;;;;;;18.05;6.55;;;11.00;99.90;;;;;;5114504;28;20400;-62
2022/05/15 01:48:59;;;;;;;19.88;7.07;;;11.00;99.90;;;;;;5096928;28;20130;-61
2022/05/15 01:51:25;;;;;;;20.50;7.35;;;11.00;99.90;;;;;;5096273;28;20056;-62
2022/05/15 01:53:51;;;;;;;18.90;7.07;;;11.00;99.90;;;;;;5096883;28;20082;-61
2022/05/15 01:56:18;;;;;;;20.10;6.75;;;10.90;99.90;;;;;;5115076;28;20082;-61
2022/05/15 01:58:44;;;;;;;23.85;7.55;;;10.90;99.90;;;;;;5096629;28;20052;-61
2022/05/15 02:01:09;;;;;;;16.23;6.80;;;10.90;99.90;;;;;;5096804;28;20404;-61
2022/05/15 02:03:36;;;;;;;26.40;7.53;;;10.80;99.90;;;;;;5079579;28;20088;-60
2022/05/15 02:06:03;;;;;;;26.33;7.53;;;10.80;99.90;;;;;;5114759;28;20492;-61
2022/05/15 02:08:31;;;;;;;25.98;7.78;;;10.80;99.90;;;;;;5096266;28;20396;-60
2022/05/15 02:10:57;;;;;;;20.35;6.90;;;10.80;99.90;;;;;;5079631;28;20044;-61
2022/05/15 02:13:23;;;;;;;22.27;6.78;;;10.70;99.90;;;;;;5096760;28;20044;-61
2022/05/15 02:15:49;;;;;;;22.95;7.65;;;10.70;99.90;;;;;;5046039;28;20054;-61
2022/05/15 02:18:14;;;;;;;21.83;6.55;;;10.70;99.90;;;;;;5045968;28;20054;-61
2022/05/15 02:20:40;;;;;;;23.85;7.35;;;10.70;99.90;;;;;;5096138;28;20043;-61
2022/05/15 02:23:06;;;;;;;21.15;6.80;;;10.60;99.90;;;;;;5096552;28;20498;-61
2022/05/15 02:25:32;;;;;;;21.50;7.30;;;10.60;99.90;;;;;;5095905;28;20047;-60
2022/05/15 02:27:58;;;;;;;16.40;6.65;;;10.60;99.90;;;;;;5096373;28;20046;-61
2022/05/15 02:30:24;;;;;;;26.38;8.15;;;10.60;99.90;;;;;;5096118;28;20448;-61
2022/05/15 02:32:50;;;;;;;21.17;7.75;;;10.50;99.90;;;;;;5095874;28;20621;-61
2022/05/15 02:35:17;;;;;;;21.70;7.43;;;10.50;99.90;;;;;;5114247;28;20365;-60
2022/05/15 02:37:44;;;;;;;18.73;6.75;;;10.50;99.90;;;;;;5095280;28;20052;-61
2022/05/15 02:40:12;;;;;;;22.85;6.93;;;10.50;99.90;;;;;;5079248;28;20061;-61
2022/05/15 02:42:38;;;;;;;22.73;7.55;;;10.50;99.90;;;;;;5095788;28;20053;-61
2022/05/15 02:45:05;;;;;;;21.98;7.18;;;10.60;99.90;;;;;;5114142;28;20047;-61
2022/05/15 02:47:32;;;;;;;25.90;7.35;;;10.60;99.90;;;;;;5095862;28;20062;-63
2022/05/15 02:52:42;;;;;;;26.02;7.63;;;10.60;99.90;;;;;;5095310;28;20135;-61
2022/05/15 02:55:08;;;;;;;18.02;6.97;;;10.50;99.90;;;;;;5096020;28;20131;-61
2022/05/15 02:57:34;;;;;;;25.63;7.53;;;10.50;99.90;;;;;;5113403;28;20054;-64
2022/05/15 02:59:59;;;;;;;21.70;7.32;;;10.50;99.90;;;;;;5095633;28;20051;-60
2022/05/15 03:02:25;;;;;;;24.65;7.30;;;10.50;99.90;;;;;;5095543;28;20043;-61
2022/05/15 03:04:51;;;;;;;18.95;7.05;;;10.50;99.90;;;;;;5078317;28;20200;-60
2022/05/15 03:07:17;;;;;;;26.10;7.68;;;10.40;99.90;;;;;;5113446;28;20606;-62
2022/05/15 03:09:43;;;;;;;23.23;6.75;;;10.40;99.90;;;;;;5094988;28;20048;-60
2022/05/15 03:12:09;;;;;;;22.77;7.25;;;10.40;99.90;;;;;;5113551;28;20488;-60
2022/05/15 03:14:35;;;;;;;16.33;7.13;;;10.30;99.90;;;;;;5113145;28;20054;-63
2022/05/15 03:17:00;;;;;;;18.23;7.53;;;10.20;99.90;;;;;;5113259;28;20043;-60
2022/05/15 03:19:26;;;;;;;16.52;6.22;;;10.20;99.90;;;;;;5094963;28;20484;-60
2022/05/15 03:21:52;;;;;;;24.77;6.85;;;10.10;99.90;;;;;;5094982;28;20087;-60
2022/05/15 03:24:18;;;;;;;21.00;7.38;;;10.10;99.90;;;;;;5113171;28;20059;-60
2022/05/15 03:26:48;;;;;;;22.75;6.65;;;10.00;99.90;;;;;;5094691;28;20039;-61
2022/05/15 03:29:16;;;;;;;24.90;7.38;;;10.00;99.90;;;;;;5093722;28;20048;-60
2022/05/15 03:31:42;;;;;;;17.42;6.90;;;10.00;99.90;;;;;;5094349;28;20408;-60
2022/05/15 03:34:10;;;;;;;18.65;6.53;;;9.90;99.90;;;;;;5094451;28;20047;-61
2022/05/15 03:36:38;;;;;;;18.98;6.65;;;10.00;99.90;;;;;;5078137;28;20076;-61
2022/05/15 03:39:06;;;;;;;16.88;6.65;;;10.00;99.90;;;;;;5061037;28;20130;-61
2022/05/15 03:41:33;;;;;;;21.77;6.57;;;9.90;99.90;;;;;;5095009;28;20500;-60
2022/05/15 03:43:59;;;;;;;18.20;6.50;;;9.90;99.90;;;;;;5112490;28;20040;-61
2022/05/15 03:46:24;;;;;;;23.15;7.30;;;9.90;99.90;;;;;;5112881;28;20059;-61
2022/05/15 03:48:50;;;;;;;18.38;6.55;;;9.90;99.90;;;;;;5094118;28;20487;-60
2022/05/15 03:51:16;;;;;;;19.13;6.72;;;9.90;99.90;;;;;;5094387;28;20048;-61
2022/05/15 03:53:42;;;;;;;18.25;6.82;;;9.90;99.90;;;;;;5094378;28;20178;-63
2022/05/15 03:56:08;;;;;;;15.43;5.97;;;9.90;99.90;;;;;;5094384;28;20051;-60
2022/05/15 03:58:36;;;;;;;19.38;6.80;;;9.90;99.90;;;;;;5077704;28;20044;-60
2022/05/15 04:01:04;;;;;;;19.23;6.93;;;9.90;99.90;;;;;;5111807;28;20773;-61
2022/05/15 04:03:30;;;;;;;20.33;6.63;;;9.90;99.90;;;;;;5112645;28;20084;-60
2022/05/15 04:05:55;;;;;;;15.90;6.82;;;9.90;99.90;;;;;;5094071;28;20058;-60
2022/05/15 04:08:21;;;;;;;15.27;6.90;;;9.90;99.90;;;;;;5077591;28;20116;-61
2022/05/15 04:10:47;;;;;;;17.60;7.03;;;10.00;99.90;;;;;;5060164;28;20055;-61
2022/05/15 04:13:13;;;;;;;19.45;6.60;;;;;;;;;;5094356;28;20055;-61
2022/05/15 04:15:39;;;;;;;20.77;7.07;;;;;;;;;;5094265;28;20054;-60
2022/05/15 04:18:06;;;;;;;19.52;6.40;;;;;;;;;;5093605;28;20126;-61
2022/05/15 04:20:32;;;;;;;18.10;5.57;;;;;;;;;;5112046;28;20047;-61
2022/05/15 04:22:58;;;;;;;20.42;6.25;;;;;;;;;;5093507;28;20123;-60
2022/05/15 04:25:24;;;;;;;18.73;5.88;;;10.00;99.90;;;;;;5093933;28;20047;-60
2022/05/15 04:27:50;;;;;;;17.60;5.63;;;10.10;99.90;;;;;;5060127;28;20072;-61
2022/05/15 04:30:20;;;;;;;15.32;6.10;;;10.10;99.90;;;;;;5077044;28;20097;-61
2022/05/15 04:32:46;;;;;;;14.55;5.97;;;10.10;99.90;;;;;;5093928;28;20130;-64
2022/05/15 04:35:12;;;;;;;22.27;6.22;;;10.30;99.90;;;;;;5093412;28;20599;-61
2022/05/15 04:37:41;;;;;;;16.17;5.80;;;10.50;99.90;;;;;;5094085;28;20099;-60
2022/05/15 04:40:08;;;;;;;16.58;5.50;;;10.80;99.90;;;;;;5111482;28;20039;-61
2022/05/15 04:42:34;;;;;;;13.77;5.28;;;11.30;99.90;;;;;;5093710;28;20047;-61
2022/05/15 04:45:00;;;;;;;17.15;5.43;;;11.90;99.90;;;;;;5093367;28;20243;-61
2022/05/15 04:47:25;;;;;;;17.00;5.43;;;12.40;99.90;;;;;;5093718;28;20104;-61
2022/05/15 04:49:52;;;;;;;19.00;5.75;;;12.80;99.90;;;;;;5076285;28;20067;-61
2022/05/15 04:52:17;;;;;;;19.85;5.78;;;13.20;99.90;;;;;;5111749;28;20051;-61
2022/05/15 04:54:43;;;;;;;16.05;5.65;;;13.60;99.90;;;;;;5093710;28;20434;-60
2022/05/15 04:57:09;;;;;;;16.65;5.60;;;14.10;99.90;;;;;;5111489;28;20107;-62
2022/05/15 04:59:35;;;;;;;17.67;5.57;;;14.60;99.90;;;;;;5093736;28;20489;-61
2022/05/15 05:02:01;;;;;;;16.10;5.65;;;14.90;99.90;;;;;;5093081;28;20455;-61
2022/05/15 05:04:27;;;;;;;19.65;5.60;;;15.30;99.90;;;;;;5093565;28;20044;-61
2022/05/15 05:06:53;;;;;;;14.45;5.13;;;15.80;99.90;;;;;;5093259;28;20052;-61
2022/05/15 05:09:19;;;;;;;11.88;4.85;;;16.10;99.90;;;;;;5076669;28;20042;-61
2022/05/15 05:11:44;;;;;;;17.00;5.53;;;16.60;99.90;;;;;;5093534;28;20503;-61
2022/05/15 05:14:10;;;;;;;14.25;5.07;;;17.00;99.90;;;;;;5093293;28;20040;-61
2022/05/15 05:16:36;;;;;;;15.90;4.93;;;17.20;99.90;;;;;;5111711;28;20090;-63
2022/05/15 05:19:03;;;;;;;12.90;4.95;;;17.50;99.90;;;;;;5076316;28;20051;-61
2022/05/15 05:21:30;;;;;;;13.57;5.43;;;17.80;99.90;;;;;;5093520;28;20472;-62
2022/05/15 05:23:55;;;;;;;15.25;5.50;;;18.00;99.90;;;;;;5111175;28;20054;-61
2022/05/15 05:26:21;;;;;;;13.98;5.20;;;18.30;99.90;;;;;;5093718;28;20536;-63
2022/05/15 05:28:47;;;;;;;15.85;4.80;;;18.60;99.90;;;;;;5111544;28;20200;-62
2022/05/15 05:31:13;;;;;;;15.43;4.88;;;19.00;99.90;;;;;;5093048;28;20043;-62
2022/05/15 05:33:39;;;;;;;13.00;4.75;;;19.20;99.90;;;;;;5093224;28;20128;-62
2022/05/15 05:36:06;;;;;;;16.67;5.18;;;19.60;99.90;;;;;;5075774;28;20188;-60
2022/05/15 05:38:32;;;;;;;13.45;4.55;;;19.90;99.90;;;;;;5093505;28;20056;-63
2022/05/15 05:40:58;;;;;;;10.05;4.15;;;20.40;99.90;;;;;;5075986;28;20249;-61
2022/05/15 05:43:24;;;;;;;16.92;5.15;;;20.70;99.90;;;;;;5093282;28;20152;-60
2022/05/15 05:45:49;;;;;;;16.42;4.88;;;20.90;99.90;;;;;;5093240;28;20082;-60
2022/05/15 05:48:15;;;;;;;14.75;4.88;;;21.00;99.10;;;;;;5092496;28;20051;-61
2022/05/15 05:50:41;;;;;;;13.38;4.88;;;21.10;98.90;;;;;;5092758;28;20108;-61
2022/05/15 05:53:07;;;;;;;14.50;4.55;;;21.40;99.90;;;;;;5077771;28;20489;-59
2022/05/15 05:55:33;;;;;;;12.90;4.68;;;21.70;99.60;;;;;;5097090;28;20051;-59
2022/05/15 05:57:59;;;;;;;15.80;4.85;;;21.60;98.90;;;;;;5114745;28;20047;-62
2022/05/15 06:00:35;;;;;;;14.93;4.78;;;22.00;98.40;;;;;;5096731;28;20426;-59
2022/05/15 06:05:46;;;;;;;15.27;4.63;;;22.40;96.80;;;;;;5114936;28;20066;-60
2022/05/15 06:08:13;;;;;;;13.48;4.85;;;22.70;97.30;;;;;;5114675;28;20144;-61
2022/05/15 06:10:40;;;;;;;17.65;5.45;;;22.60;95.30;;;;;;5079665;28;20523;-60
2022/05/15 06:13:06;;;;;;;17.52;5.30;;;22.90;95.40;;;;;;5096687;28;20134;-61
2022/05/15 06:15:33;;;;;;;14.70;5.22;;;22.80;96.60;;;;;;5096992;28;20052;-62
2022/05/15 06:18:00;;;;;;;12.93;4.70;;;22.90;94.50;;;;;;5114620;28;20080;-63
2022/05/15 06:20:26;;;;;;;13.93;4.68;;;23.20;96.00;;;;;;5079834;28;20054;-62
2022/05/15 06:22:52;;;;;;;16.02;4.97;;;23.50;95.30;;;;;;5079551;28;20039;-61
2022/05/15 06:25:18;;;;;;;15.23;4.80;;;23.80;95.00;;;;;;5096336;28;20152;-62
2022/05/15 06:27:44;;;;;;;11.93;4.75;;;24.30;94.40;;;;;;5114569;28;20405;-61
2022/05/15 06:30:12;;;;;;;12.30;4.43;;;24.60;93.90;;;;;;5114053;28;20550;-61
2022/05/15 06:32:39;;;;;;;10.93;4.32;;;24.70;93.30;;;;;;5079467;28;20105;-62
2022/05/15 06:35:06;;;;;;;14.73;4.85;;;24.40;92.40;;;;;;5095577;28;20060;-64
2022/05/15 06:37:33;;;;;;;13.77;4.72;;;24.40;91.50;;;;;;5096158;28;20094;-60
2022/05/15 06:39:58;;;;;;;14.43;4.78;;;24.80;92.40;;;;;;5095276;28;20054;-61
2022/05/15 06:42:25;;;;;;;12.85;5.05;;;24.80;90.70;;;;;;5113356;28;20039;-60
2022/05/15 06:44:51;;;;;;;12.02;4.85;;;24.90;91.40;;;;;;5096402;28;20126;-61
2022/05/15 06:47:17;;;;;;;14.75;4.95;;;25.20;91.70;;;;;;5095887;28;20123;-61
2022/05/15 06:49:42;;;;;;;12.38;5.10;;;25.40;91.30;;;;;;5095760;28;20063;-62
2022/05/15 06:52:08;;;;;;;16.67;5.25;;;25.70;91.20;;;;;;5095544;28;20172;-61
2022/05/15 06:54:34;;;;;;;10.40;3.97;;;25.90;87.80;;;;;;5095952;28;20070;-61
2022/05/15 06:59:44;;;;;;;17.27;5.03;;;25.90;89.30;;;;;;5113851;28;20099;-61
2022/05/15 07:02:10;;;;;;;14.23;4.93;;;25.90;88.00;;;;;;5095053;28;20126;-62
2022/05/15 07:04:36;;;;;;;13.00;5.07;;;25.90;86.80;;;;;;5095219;28;20047;-61
2022/05/15 07:07:03;;;;;;;14.25;5.13;;;26.20;85.60;;;;;;5095796;28;20054;-61
2022/05/15 07:09:30;;;;;;;13.82;4.43;;;26.40;85.70;;;;;;5112847;28;20515;-61
2022/05/15 07:11:56;;;;;;;13.93;4.47;;;27.00;85.10;;;;;;5095682;28;20053;-62
2022/05/15 07:14:22;;;;;;;13.50;5.28;;;27.10;83.60;;;;;;5078230;28;20086;-61
2022/05/15 07:16:47;;;;;;;15.32;5.20;;;27.20;82.10;;;;;;5095600;28;20065;-61
2022/05/15 07:19:13;;;;;;;12.75;4.70;;;27.60;84.10;;;;;;5078102;28;20521;-61
2022/05/15 07:21:39;;;;;;;16.27;5.28;;;27.70;81.40;;;;;;5095427;28;20044;-61
2022/05/15 07:24:05;;;;;;;12.30;4.00;;;28.00;80.60;;;;;;5095288;28;20088;-61
2022/05/15 07:26:31;;;;;;;17.38;5.07;;;28.00;79.80;;;;;;5094818;28;20048;-60
2022/05/15 07:28:57;;;;;;;15.15;4.55;;;28.10;80.50;;;;;;5113386;28;20043;-61
2022/05/15 07:31:23;;;;;;;15.27;4.68;;;28.40;79.70;;;;;;5113070;28;20043;-61
2022/05/15 07:33:51;;;;;;;14.20;4.00;;;28.90;81.10;;;;;;5078380;28;20044;-61
2022/05/15 07:36:17;;;;;;;11.07;4.25;;;28.90;78.70;;;;;;5094824;28;20134;-62
2022/05/15 07:38:43;;;;;;;13.82;4.53;;;28.90;79.30;;;;;;5095044;28;20142;-61
2022/05/15 07:41:09;;;;;;;12.80;4.03;;;28.40;75.90;;;;;;5113065;28;20100;-61
2022/05/15 07:43:35;;;;;;;14.10;4.25;;;28.40;76.70;;;;;;5094634;28;20051;-60
2022/05/15 07:46:01;;;;;;;16.30;4.13;;;28.40;75.90;;;;;;5094650;28;20039;-60
2022/05/15 07:48:27;;;;;;;12.70;4.55;;;28.00;75.60;;;;;;5077447;28;20048;-59
2022/05/15 07:50:55;;;;;;;11.57;3.72;;;28.00;76.40;;;;;;5090928;28;20059;-60
2022/05/15 07:53:21;;;;;;;11.48;4.00;;;28.50;75.20;;;;;;5092200;28;20088;-61
2022/05/15 07:55:46;;;;;;;12.27;4.10;;;28.30;73.20;;;;;;5091450;28;20044;-60
2022/05/15 07:58:12;;;;;;;12.90;4.47;;;27.80;75.00;;;;;;5091457;28;20407;-60
2022/05/15 08:00:39;;;;;;;10.55;4.32;;;27.70;75.80;;;;;;5090758;28;20120;-60
2022/05/15 08:03:11;;;;;;;13.05;4.25;;;28.10;75.30;;;;;;5092477;28;20073;-61
2022/05/15 08:08:22;;;;;;;11.48;4.03;;;28.60;72.40;;;;;;5091085;28;20052;-60
2022/05/15 08:10:49;;;;;;;12.50;4.10;;;28.80;74.40;;;;;;5074173;28;20048;-60
2022/05/15 08:13:17;;;;;;;13.35;4.55;;;29.10;73.40;;;;;;5092336;28;20044;-60
2022/05/15 08:15:44;;;;;;;13.77;4.03;;;29.20;73.20;;;;;;5091676;28;20400;-60
2022/05/15 08:23:46;;;;;;;12.63;4.13;;;29.60;70.80;;;;;;5091892;28;20043;-61
2022/05/15 08:26:12;;;;;;;12.23;4.00;;;29.50;69.90;;;;;;5091128;28;20051;-62
2022/05/15 08:28:39;;;;;;;10.60;3.55;;;29.60;70.30;;;;;;5073774;28;20632;-61
2022/05/15 08:31:06;;;;;;;12.32;4.30;;;29.60;72.00;;;;;;5090795;28;20099;-62
2022/05/15 08:33:33;;;;;;;12.23;4.07;;;29.70;70.40;;;;;;5091532;28;20051;-61
2022/05/15 08:35:59;;;;;;;12.40;3.83;;;29.60;70.40;;;;;;5090954;28;20040;-59
2022/05/15 08:38:25;;;;;;;12.18;3.80;;;29.70;70.60;;;;;;5090191;28;20078;-61
2022/05/15 08:41:00;;;;;;;13.73;4.13;;;29.80;68.10;;;;;;5090915;28;20048;-62
2022/05/15 08:43:50;;;;;;;11.02;3.85;;;29.60;68.90;;;;;;5091358;28;20105;-61
2022/05/15 08:46:41;;;;;;;10.82;3.75;;;29.00;68.50;;;;;;5090813;28;20044;-61
2022/05/15 08:49:12;;;;;;;9.32;3.45;;;29.10;68.50;;;;;;5091646;28;20405;-60
2022/05/15 08:51:45;;;;;;;8.70;3.00;;;29.10;68.20;;;;;;5093818;28;20131;-60
2022/05/15 08:54:12;;;;;;;12.07;4.03;;;29.10;68.80;;;;;;5093706;28;20481;-60
2022/05/15 08:56:46;;;;;;;10.23;3.70;;;29.40;69.20;;;;;;5111334;28;20485;-60
2022/05/15 08:59:27;;;;;;;9.90;3.70;;;29.90;67.40;;;;;;5111744;28;20043;-61
2022/05/15 09:01:56;;;;;;;13.38;4.00;;;29.90;67.10;;;;;;5111735;28;20392;-61
2022/05/15 09:04:22;;;;;;;11.40;3.60;;;29.70;67.80;;;;;;5093340;28;20588;-60
2022/05/15 09:07:06;;;;;;;9.55;3.47;;;29.60;67.20;;;;;;5111280;28;20492;-60
2022/05/15 09:09:35;;;;;;;9.55;3.28;;;29.30;65.90;;;;;;5111367;28;20116;-61
2022/05/15 09:12:18;;;;;;;8.10;3.05;;;29.20;65.90;;;;;;5093797;28;20126;-60
2022/05/15 09:15:00;;;;;;;12.73;4.10;;;29.30;66.00;;;;;;5111475;28;20112;-59
2022/05/15 09:17:51;;;;;;;10.00;3.53;;;29.50;66.50;;;;;;5111564;28;20048;-63
2022/05/15 09:20:55;;;;;;;9.70;3.35;;;29.40;65.60;;;;;;5111740;28;20077;-61
2022/05/15 09:23:39;;;;;;;9.25;3.63;;;29.20;66.40;;;;;;5074484;28;20131;-60
2022/05/15 09:26:25;;;;;;;12.82;3.65;;;28.80;66.00;;;;;;5111648;28;20070;-61
2022/05/15 09:29:01;;;;;;;7.43;3.00;;;29.00;65.90;;;;;;5096180;28;20048;-59
2022/05/15 09:31:38;;;;;;;11.00;3.65;;;29.00;66.20;;;;;;5097203;28;20130;-63
2022/05/15 09:34:07;;;;;;;12.32;3.42;;;29.20;66.40;;;;;;5097328;28;20047;-60
2022/05/15 09:36:36;;;;;;;10.35;3.53;;;29.10;64.40;;;;;;5097031;28;20059;-60
2022/05/15 09:39:20;;;;;;;11.43;3.42;;;28.50;65.50;;;;;;5115628;28;20577;-60
2022/05/15 09:44:42;;;;;;;8.55;2.85;;;27.80;66.10;;;;;;5115066;28;20078;-60
2022/05/15 09:47:11;;;;;;;8.15;3.30;;;27.20;67.00;;;;;;5115408;28;20484;-60
2022/05/15 09:49:37;;;;;;;10.13;3.17;;;26.90;67.20;;;;;;5095455;28;20083;-61
2022/05/15 09:52:16;;;;;;;10.23;3.25;;;26.70;67.20;;;;;;5097028;28;20086;-60
2022/05/15 09:54:46;;;;;;;11.25;3.50;;;26.70;67.60;;;;;;5096772;28;20047;-60
2022/05/15 09:57:27;;;;;;;10.20;3.30;;;26.70;66.20;;;;;;5115164;28;20039;-60
2022/05/15 09:59:59;;;;;;;9.82;3.00;;;26.70;66.60;;;;;;5114859;28;20040;-60
2022/05/15 10:02:42;;;;;;;11.30;3.45;;;26.60;66.60;;;;;;5115074;28;20047;-61
2022/05/15 10:05:14;;;;;;;11.32;3.60;;;26.60;66.70;;;;;;5114979;28;20130;-61
2022/05/15 10:07:45;;;;;;;7.93;2.85;;;26.50;66.90;;;;;;5114737;28;20075;-63
2022/05/15 10:10:24;;;;;;;9.13;2.80;;;26.20;65.90;;;;;;5096684;28;20042;-61
2022/05/15 10:12:57;;;;;;;9.98;3.30;;;25.70;66.50;;;;;;5114648;28;20094;-61
2022/05/15 10:15:26;;;;;;;9.88;3.08;;;25.40;67.20;;;;;;5114859;28;20426;-61
2022/05/15 10:17:57;;;;;;;13.27;3.55;;;25.40;68.90;;;;;;5079916;28;20438;-61
2022/05/15 10:20:24;;;;;;;9.27;3.60;;;25.20;67.80;;;;;;5114763;28;20114;-61
2022/05/15 10:23:05;;;;;;;9.25;3.35;;;24.90;68.90;;;;;;5096260;28;20043;-62
2022/05/15 10:25:49;;;;;;;9.63;3.55;;;24.80;69.50;;;;;;5096593;28;20131;-61
2022/05/15 10:28:39;;;;;;;9.93;3.03;;;24.80;69.70;;;;;;5114873;28;20086;-62
2022/05/15 10:31:11;;;;;;;8.68;3.05;;;24.70;69.60;;;;;;5114432;28;20048;-61
2022/05/15 10:33:42;;;;;;;9.63;3.45;;;24.50;69.30;;;;;;5114416;28;20065;-61
2022/05/15 10:36:19;;;;;;;10.05;3.42;;;24.30;70.30;;;;;;5114367;28;20074;-61
2022/05/15 10:39:02;;;;;;;10.55;3.45;;;24.20;69.90;;;;;;5113720;28;20058;-63
2022/05/15 10:42:07;;;;;;;9.52;2.90;;;24.00;70.20;;;;;;5114352;28;20090;-60
2022/05/15 10:44:59;;;;;;;10.07;3.33;;;23.90;71.40;;;;;;5114345;28;20055;-60
2022/05/15 10:47:56;;;;;;;11.35;3.45;;;23.70;69.90;;;;;;5096178;28;20070;-60
2022/05/15 10:50:59;;;;;;;9.25;3.35;;;23.60;70.90;;;;;;5105531;28;20113;-61
2022/05/15 10:59:42;;;;;;;8.35;3.10;;;23.50;70.40;;;;;;5114040;28;20059;-60
2022/05/15 11:02:34;;;;;;;12.40;3.25;;;23.50;72.30;;;;;;5095806;28;20044;-61
2022/05/15 11:05:19;;;;;;;9.40;2.92;;;23.80;71.60;;;;;;5097202;28;20047;-61
2022/05/15 11:07:54;;;;;;;10.35;3.65;;;23.90;70.00;;;;;;5094847;28;20055;-65
2022/05/15 11:10:23;;;;;;;8.35;3.10;;;23.80;69.40;;;;;;5113117;28;20047;-61
2022/05/15 11:13:09;;;;;;;9.43;3.22;;;23.60;69.60;;;;;;5113483;28;20055;-60
2022/05/15 11:15:49;;;;;;;10.40;3.30;;;23.50;70.30;;;;;;5095707;28;20043;-60
2022/05/15 11:18:40;;;;;;;8.70;3.13;;;23.30;71.00;;;;;;5095487;28;20198;-60
2022/05/15 11:21:14;;;;;;;10.15;3.35;;;23.30;70.10;;;;;;5112610;28;20044;-61
2022/05/15 11:23:49;;;;;;;;;;;23.30;70.70;;;;;;5113731;28;20104;-63
2022/05/15 11:26:37;;;;;;;9.52;3.00;;;23.30;70.90;;;;;;5113078;28;20014;-61
2022/05/15 11:29:10;;;;;;;7.70;2.90;;;23.40;70.50;;;;;;5112953;28;20143;-60
2022/05/15 11:31:38;;;;;;;;;;;23.60;69.80;;;;;;5095442;28;20058;-61
2022/05/15 11:34:08;;;;;;;10.45;2.97;;;23.60;69.20;;;;;;5112961;28;20206;-61
2022/05/15 11:36:42;;;;;;;7.10;2.70;;;23.50;70.00;;;;;;5113330;28;20036;-60
2022/05/15 11:39:14;;;;;;;6.65;2.42;;;23.50;70.70;;;;;;5094697;28;20085;-63
2022/05/15 11:41:43;;;;;;;9.57;3.00;;;23.50;70.70;;;;;;5078191;28;20057;-62
2022/05/15 11:44:18;;;;;;;8.68;2.80;;;23.50;70.50;;;;;;5094419;28;20108;-61
2022/05/15 11:46:50;;;;;;;8.68;2.75;;;23.50;69.90;;;;;;5113051;28;20149;-61
2022/05/15 11:50:03;;;;;;;7.55;2.55;;;23.50;70.40;;;;;;5112435;28;20055;-63
2022/05/15 11:52:35;;;;;;;7.10;2.40;;;23.40;69.80;;;;;;5087834;28;20055;-59
2022/05/15 11:55:38;;;;;;;7.28;2.47;;;23.50;69.80;;;;;;5112596;28;20048;-59
2022/05/15 11:58:10;;;;;;;8.95;2.50;;;23.30;70.00;;;;;;5094568;28;20123;-60
2022/05/15 12:00:42;;;;;;;8.40;2.50;;;23.20;69.60;;;;;;5112749;28;20059;-59
2022/05/15 12:03:48;;;;;;;6.00;2.30;;;23.10;69.90;;;;;;5094175;28;20054;-59
2022/05/15 12:06:17;;;;;;;9.93;3.05;;;23.10;69.70;;;;;;5111875;28;20058;-59
2022/05/15 12:08:48;;;;;;;7.82;2.88;;;23.00;69.90;;;;;;5112760;28;20078;-59
2022/05/15 12:11:34;;;;;;;8.30;2.38;;;22.90;70.10;;;;;;5094094;28;20069;-60
2022/05/15 12:14:22;;;;;;;10.43;2.90;;;23.00;70.60;;;;;;5112098;28;20122;-59
2022/05/15 12:17:25;;;;;;;9.73;2.60;;;23.00;69.80;;;;;;5077739;28;20051;-59
2022/05/15 12:20:08;;;;;;;7.97;2.65;;;22.90;70.60;;;;;;5094057;28;20130;-64
2022/05/15 12:22:42;;;;;;;8.50;2.50;;;23.00;70.30;;;;;;5112499;28;20055;-60
2022/05/15 12:25:12;;;;;;;7.38;2.58;;;23.00;70.40;;;;;;5112158;28;20044;-59
2022/05/15 12:31:13;;;;;;;11.98;3.13;;;23.10;70.50;;;;;;5111514;28;20048;-60
2022/05/15 12:33:40;;;;;;;10.20;2.88;;;23.30;70.10;;;;;;5093271;28;20362;-60
2022/05/15 12:36:39;;;;;;;9.27;2.78;;;23.20;70.10;;;;;;5093327;28;20051;-59
2022/05/15 12:39:06;;;;;;;7.88;2.85;;;23.10;70.90;;;;;;5111194;28;20054;-60
2022/05/15 12:41:38;;;;;;;9.48;3.03;;;22.90;71.20;;;;;;5111964;28;20126;-58
2022/05/15 12:44:06;;;;;;;9.00;3.13;;;22.90;71.60;;;;;;5093016;28;20040;-59
2022/05/15 12:46:54;;;;;;;8.93;3.03;;;22.90;72.20;;;;;;5076878;28;20147;-61
2022/05/15 12:49:41;;;;;;;7.43;3.28;;;22.80;71.00;;;;;;5110998;28;20062;-60
2022/05/15 12:52:16;;;;;;;9.15;3.08;;;22.90;71.40;;;;;;5111362;28;20039;-60
2022/05/15 12:54:45;;;;;;;10.02;2.92;;;22.80;70.90;;;;;;5111201;28;20056;-59
2022/05/15 12:57:15;;;;;;;9.43;2.75;;;22.70;71.00;;;;;;5093007;28;20057;-59
2022/05/15 12:59:49;;;;;;;8.85;3.00;;;22.70;71.90;;;;;;5093723;28;20392;-60
2022/05/15 13:02:20;;;;;;;9.85;3.20;;;22.70;71.60;;;;;;5114875;28;20089;-59
2022/05/15 13:04:51;;;;;;;8.90;2.80;;;22.70;71.70;;;;;;5118431;28;20047;-60
2022/05/15 13:07:26;;;;;;;8.00;2.80;;;22.70;71.00;;;;;;5117903;28;20047;-60
2022/05/15 13:10:05;;;;;;;9.07;2.90;;;22.50;71.10;;;;;;5100130;28;20139;-60
2022/05/15 13:12:31;;;;;;;9.25;2.90;;;22.50;72.50;;;;;;5100626;28;20469;-59
2022/05/15 13:14:58;;;;;;;8.13;2.92;;;22.50;71.80;;;;;;5100501;28;20119;-59
2022/05/15 13:17:34;;;;;;;10.40;3.17;;;22.50;71.90;;;;;;5083447;28;20043;-60
2022/05/15 13:20:09;;;;;;;6.22;2.67;;;22.50;72.10;;;;;;5118610;28;20468;-63
2022/05/15 13:22:36;;;;;;;8.40;2.67;;;22.50;72.60;;;;;;5100474;28;20043;-60
2022/05/15 13:25:36;;;;;;;9.10;3.13;;;22.50;72.40;;;;;;5118187;28;20126;-64
2022/05/15 13:28:02;;;;;;;9.77;2.88;;;22.40;72.80;;;;;;5112390;28;20059;-64
2022/05/15 13:30:30;;;;;;;8.48;3.20;;;22.30;72.80;;;;;;5118579;28;20043;-61